Arminto, Wyoming
Current Conditions -  °F | °C
As of 11:53 PM on Sunday 21 Dec 2014 (Local Time) from KCPR Reporting Station
Overcast Overcast  
Wind Chill: -7°   Ceiling: 9000
Heat Index: -1°   Visibility: 10mi
Dew Point: -4°   Wind: 18mph
Humidity: 76%   Direction: 290°WNW
Pressure: 29.71"   Gusts: NA
Location:  43.18°N, 107.26°W
Report Text: KCPR 220653Z AUTO 29016KT 10SM SCT055 OVC090 M01/M04 A2971 RMK AO2 PK WND 30029/0555 SLP066 T10061044 400501011
Loading
Personal Weather Stations






























Interactive Weather Map New forecast layout! Learn more

10-Day Weather Forecast

Advertisements
Track Severe Weather on mobile